sensor_id;sensor_type;location;lat;lon;timestamp;temperature;humidity
78992;DHT22;72820;44.838;37.674;2024-03-29T00:00:17;13.32;23.75
78992;DHT22;72820;44.838;37.674;2024-03-29T00:01:18;13.34;23.85
78992;DHT22;72820;44.838;37.674;2024-03-29T00:02:20;13.35;24.22
78992;DHT22;72820;44.838;37.674;2024-03-29T00:03:21;13.38;23.49
78992;DHT22;72820;44.838;37.674;2024-03-29T00:04:23;13.37;23.95
78992;DHT22;72820;44.838;37.674;2024-03-29T00:05:24;13.34;24.36
78992;DHT22;72820;44.838;37.674;2024-03-29T00:06:25;13.35;24.64
78992;DHT22;72820;44.838;37.674;2024-03-29T00:07:27;13.35;23.75
78992;DHT22;72820;44.838;37.674;2024-03-29T00:08:28;13.32;24.18
78992;DHT22;72820;44.838;37.674;2024-03-29T00:09:30;13.32;24.10
78992;DHT22;72820;44.838;37.674;2024-03-29T00:10:31;13.29;24.56
78992;DHT22;72820;44.838;37.674;2024-03-29T00:11:34;13.25;24.84
78992;DHT22;72820;44.838;37.674;2024-03-29T00:12:35;13.24;23.93
78992;DHT22;72820;44.838;37.674;2024-03-29T00:13:37;13.24;24.56
78992;DHT22;72820;44.838;37.674;2024-03-29T00:14:38;13.21;25.01
78992;DHT22;72820;44.838;37.674;2024-03-29T00:15:40;13.22;25.16
78992;DHT22;72820;44.838;37.674;2024-03-29T00:16:42;13.18;24.94
78992;DHT22;72820;44.838;37.674;2024-03-29T00:17:43;13.12;25.26
78992;DHT22;72820;44.838;37.674;2024-03-29T00:18:44;13.12;25.14
78992;DHT22;72820;44.838;37.674;2024-03-29T00:19:46;13.12;25.33
78992;DHT22;72820;44.838;37.674;2024-03-29T00:20:47;13.11;25.12
78992;DHT22;72820;44.838;37.674;2024-03-29T00:21:49;13.07;25.69
78992;DHT22;72820;44.838;37.674;2024-03-29T00:22:50;13.06;25.49
78992;DHT22;72820;44.838;37.674;2024-03-29T00:23:51;13.08;25.54
78992;DHT22;72820;44.838;37.674;2024-03-29T00:24:53;13.08;25.48
78992;DHT22;72820;44.838;37.674;2024-03-29T00:25:54;13.08;24.79
78992;DHT22;72820;44.838;37.674;2024-03-29T00:26:59;13.08;25.22
78992;DHT22;72820;44.838;37.674;2024-03-29T00:28:00;13.10;25.73
78992;DHT22;72820;44.838;37.674;2024-03-29T00:29:02;13.07;25.84
78992;DHT22;72820;44.838;37.674;2024-03-29T00:30:04;13.11;25.57
78992;DHT22;72820;44.838;37.674;2024-03-29T00:31:07;13.08;25.49
78992;DHT22;72820;44.838;37.674;2024-03-29T00:32:08;13.06;25.98
78992;DHT22;72820;44.838;37.674;2024-03-29T00:33:09;13.06;26.01
78992;DHT22;72820;44.838;37.674;2024-03-29T00:34:11;13.04;25.33
78992;DHT22;72820;44.838;37.674;2024-03-29T00:35:12;13.03;25.94
78992;DHT22;72820;44.838;37.674;2024-03-29T00:36:15;13.08;25.22
78992;DHT22;72820;44.838;37.674;2024-03-29T00:37:17;13.07;24.87
78992;DHT22;72820;44.838;37.674;2024-03-29T00:38:18;13.08;25.18
78992;DHT22;72820;44.838;37.674;2024-03-29T00:39:20;13.10;25.39
78992;DHT22;72820;44.838;37.674;2024-03-29T00:40:21;13.11;25.02
78992;DHT22;72820;44.838;37.674;2024-03-29T00:41:22;13.12;24.57
78992;DHT22;72820;44.838;37.674;2024-03-29T00:42:24;13.17;24.50
78992;DHT22;72820;44.838;37.674;2024-03-29T00:43:25;13.18;24.51
78992;DHT22;72820;44.838;37.674;2024-03-29T00:44:27;13.19;24.72
78992;DHT22;72820;44.838;37.674;2024-03-29T00:45:28;13.19;24.60
78992;DHT22;72820;44.838;37.674;2024-03-29T00:46:30;13.21;24.63
78992;DHT22;72820;44.838;37.674;2024-03-29T00:47:31;13.21;25.07
78992;DHT22;72820;44.838;37.674;2024-03-29T00:48:33;13.21;24.89
78992;DHT22;72820;44.838;37.674;2024-03-29T00:49:35;13.21;24.81
78992;DHT22;72820;44.838;37.674;2024-03-29T00:50:36;13.18;24.68
78992;DHT22;72820;44.838;37.674;2024-03-29T00:51:38;13.15;24.71
78992;DHT22;72820;44.838;37.674;2024-03-29T00:52:40;13.15;24.81
78992;DHT22;72820;44.838;37.674;2024-03-29T00:53:41;13.12;24.80
78992;DHT22;72820;44.838;37.674;2024-03-29T00:54:43;13.14;24.52
78992;DHT22;72820;44.838;37.674;2024-03-29T00:55:44;13.15;24.72
78992;DHT22;72820;44.838;37.674;2024-03-29T00:56:45;13.15;24.76
78992;DHT22;72820;44.838;37.674;2024-03-29T00:57:47;13.19;24.48
78992;DHT22;72820;44.838;37.674;2024-03-29T00:58:48;13.17;24.35
78992;DHT22;72820;44.838;37.674;2024-03-29T00:59:49;13.21;24.56
78992;DHT22;72820;44.838;37.674;2024-03-29T01:00:51;13.19;24.78
78992;DHT22;72820;44.838;37.674;2024-03-29T01:01:52;13.21;25.05
78992;DHT22;72820;44.838;37.674;2024-03-29T01:02:54;13.21;25.11
78992;DHT22;72820;44.838;37.674;2024-03-29T01:03:55;13.22;25.11
78992;DHT22;72820;44.838;37.674;2024-03-29T01:04:56;13.19;25.05
78992;DHT22;72820;44.838;37.674;2024-03-29T01:05:58;13.19;25.44
78992;DHT22;72820;44.838;37.674;2024-03-29T01:06:59;13.19;25.83
78992;DHT22;72820;44.838;37.674;2024-03-29T01:08:00;13.19;25.74
78992;DHT22;72820;44.838;37.674;2024-03-29T01:09:02;13.19;25.62
78992;DHT22;72820;44.838;37.674;2024-03-29T01:10:05;13.19;26.14
78992;DHT22;72820;44.838;37.674;2024-03-29T01:11:06;13.19;25.81
78992;DHT22;72820;44.838;37.674;2024-03-29T01:12:07;13.18;26.17
78992;DHT22;72820;44.838;37.674;2024-03-29T01:13:09;13.18;26.36
78992;DHT22;72820;44.838;37.674;2024-03-29T01:14:10;13.19;25.97
78992;DHT22;72820;44.838;37.674;2024-03-29T01:15:12;13.14;26.06
78992;DHT22;72820;44.838;37.674;2024-03-29T01:16:13;13.18;26.75
78992;DHT22;72820;44.838;37.674;2024-03-29T01:17:14;13.18;26.76
78992;DHT22;72820;44.838;37.674;2024-03-29T01:18:16;13.15;26.59
78992;DHT22;72820;44.838;37.674;2024-03-29T01:19:17;13.12;26.84
78992;DHT22;72820;44.838;37.674;2024-03-29T01:20:18;13.15;26.39
78992;DHT22;72820;44.838;37.674;2024-03-29T01:21:20;13.12;26.78
78992;DHT22;72820;44.838;37.674;2024-03-29T01:22:21;13.08;26.88
78992;DHT22;72820;44.838;37.674;2024-03-29T01:23:22;13.14;27.09
78992;DHT22;72820;44.838;37.674;2024-03-29T01:24:24;13.11;27.07
78992;DHT22;72820;44.838;37.674;2024-03-29T01:25:25;13.12;26.84
78992;DHT22;72820;44.838;37.674;2024-03-29T01:26:28;13.10;26.83
78992;DHT22;72820;44.838;37.674;2024-03-29T01:27:30;13.07;26.76
78992;DHT22;72820;44.838;37.674;2024-03-29T01:28:31;13.10;26.71
78992;DHT22;72820;44.838;37.674;2024-03-29T01:29:33;13.10;26.55
78992;DHT22;72820;44.838;37.674;2024-03-29T01:30:34;13.11;26.54
78992;DHT22;72820;44.838;37.674;2024-03-29T01:31:35;13.10;26.49
78992;DHT22;72820;44.838;37.674;2024-03-29T01:32:37;13.12;26.76
78992;DHT22;72820;44.838;37.674;2024-03-29T01:33:43;13.14;26.56
78992;DHT22;72820;44.838;37.674;2024-03-29T01:34:44;13.12;26.44
78992;DHT22;72820;44.838;37.674;2024-03-29T01:35:46;13.17;26.45
78992;DHT22;72820;44.838;37.674;2024-03-29T01:36:47;13.17;26.81
78992;DHT22;72820;44.838;37.674;2024-03-29T01:37:48;13.18;26.47
78992;DHT22;72820;44.838;37.674;2024-03-29T01:38:50;13.18;26.52
78992;DHT22;72820;44.838;37.674;2024-03-29T01:39:55;13.19;26.90
78992;DHT22;72820;44.838;37.674;2024-03-29T01:40:56;13.17;26.35
78992;DHT22;72820;44.838;37.674;2024-03-29T01:41:58;13.17;25.97
78992;DHT22;72820;44.838;37.674;2024-03-29T01:43:01;13.17;26.62
78992;DHT22;72820;44.838;37.674;2024-03-29T01:44:02;13.18;26.48
78992;DHT22;72820;44.838;37.674;2024-03-29T01:45:05;13.19;26.60
78992;DHT22;72820;44.838;37.674;2024-03-29T01:46:06;13.19;26.60
78992;DHT22;72820;44.838;37.674;2024-03-29T01:47:09;13.21;26.87
78992;DHT22;72820;44.838;37.674;2024-03-29T01:48:10;13.19;26.71
78992;DHT22;72820;44.838;37.674;2024-03-29T01:49:12;13.24;26.59
78992;DHT22;72820;44.838;37.674;2024-03-29T01:50:13;13.24;26.50
78992;DHT22;72820;44.838;37.674;2024-03-29T01:51:15;13.27;26.40
78992;DHT22;72820;44.838;37.674;2024-03-29T01:52:18;13.24;26.58
78992;DHT22;72820;44.838;37.674;2024-03-29T01:53:22;13.27;26.49
78992;DHT22;72820;44.838;37.674;2024-03-29T01:54:23;13.27;26.32
78992;DHT22;72820;44.838;37.674;2024-03-29T01:55:25;13.28;26.24
78992;DHT22;72820;44.838;37.674;2024-03-29T01:56:30;13.27;26.33
78992;DHT22;72820;44.838;37.674;2024-03-29T01:57:32;13.25;26.40
78992;DHT22;72820;44.838;37.674;2024-03-29T01:58:33;13.31;26.83
78992;DHT22;72820;44.838;37.674;2024-03-29T01:59:37;13.31;27.05
78992;DHT22;72820;44.838;37.674;2024-03-29T02:00:43;13.31;27.00
78992;DHT22;72820;44.838;37.674;2024-03-29T02:01:46;13.34;26.68
78992;DHT22;72820;44.838;37.674;2024-03-29T02:02:48;13.31;26.68
78992;DHT22;72820;44.838;37.674;2024-03-29T02:03:51;13.29;26.67
78992;DHT22;72820;44.838;37.674;2024-03-29T02:04:53;13.29;26.14
78992;DHT22;72820;44.838;37.674;2024-03-29T02:05:54;13.31;25.95
78992;DHT22;72820;44.838;37.674;2024-03-29T02:06:58;13.28;26.19
78992;DHT22;72820;44.838;37.674;2024-03-29T02:07:59;13.29;26.46
78992;DHT22;72820;44.838;37.674;2024-03-29T02:09:01;13.32;26.33
78992;DHT22;72820;44.838;37.674;2024-03-29T02:10:05;13.32;26.49
78992;DHT22;72820;44.838;37.674;2024-03-29T02:11:09;13.35;26.30
78992;DHT22;72820;44.838;37.674;2024-03-29T02:12:10;13.37;25.22
78992;DHT22;72820;44.838;37.674;2024-03-29T02:13:12;13.37;26.27
78992;DHT22;72820;44.838;37.674;2024-03-29T02:14:13;13.32;25.92
78992;DHT22;72820;44.838;37.674;2024-03-29T02:15:15;13.35;25.75
78992;DHT22;72820;44.838;37.674;2024-03-29T02:16:19;13.37;26.10
78992;DHT22;72820;44.838;37.674;2024-03-29T02:17:21;13.39;26.88
78992;DHT22;72820;44.838;37.674;2024-03-29T02:18:22;13.41;26.42
78992;DHT22;72820;44.838;37.674;2024-03-29T02:19:23;13.44;25.65
78992;DHT22;72820;44.838;37.674;2024-03-29T02:20:25;13.45;26.14
78992;DHT22;72820;44.838;37.674;2024-03-29T02:21:27;13.44;26.52
78992;DHT22;72820;44.838;37.674;2024-03-29T02:22:29;13.42;25.91
78992;DHT22;72820;44.838;37.674;2024-03-29T02:23:32;13.44;25.97
78992;DHT22;72820;44.838;37.674;2024-03-29T02:24:36;13.44;25.52
78992;DHT22;72820;44.838;37.674;2024-03-29T02:25:38;13.45;25.81
78992;DHT22;72820;44.838;37.674;2024-03-29T02:26:39;13.38;25.86
78992;DHT22;72820;44.838;37.674;2024-03-29T02:27:43;13.42;25.39
78992;DHT22;72820;44.838;37.674;2024-03-29T02:28:44;13.41;25.96
78992;DHT22;72820;44.838;37.674;2024-03-29T02:29:46;13.41;26.87
78992;DHT22;72820;44.838;37.674;2024-03-29T02:30:47;13.38;26.60
78992;DHT22;72820;44.838;37.674;2024-03-29T02:31:48;13.37;27.07
78992;DHT22;72820;44.838;37.674;2024-03-29T02:32:50;13.35;26.42
78992;DHT22;72820;44.838;37.674;2024-03-29T02:33:51;13.38;26.03
78992;DHT22;72820;44.838;37.674;2024-03-29T02:34:53;13.38;27.21
78992;DHT22;72820;44.838;37.674;2024-03-29T02:35:55;13.39;26.81
78992;DHT22;72820;44.838;37.674;2024-03-29T02:36:56;13.37;27.61
78992;DHT22;72820;44.838;37.674;2024-03-29T02:37:58;13.35;26.15
78992;DHT22;72820;44.838;37.674;2024-03-29T02:38:59;13.37;27.21
78992;DHT22;72820;44.838;37.674;2024-03-29T02:40:00;13.38;26.09
78992;DHT22;72820;44.838;37.674;2024-03-29T02:41:02;13.37;26.03
78992;DHT22;72820;44.838;37.674;2024-03-29T02:42:04;13.35;25.06
78992;DHT22;72820;44.838;37.674;2024-03-29T02:43:05;13.37;25.91
78992;DHT22;72820;44.838;37.674;2024-03-29T02:44:07;13.32;26.57
78992;DHT22;72820;44.838;37.674;2024-03-29T02:45:09;13.29;26.16
78992;DHT22;72820;44.838;37.674;2024-03-29T02:46:10;13.29;26.46
78992;DHT22;72820;44.838;37.674;2024-03-29T02:47:11;13.29;26.49
78992;DHT22;72820;44.838;37.674;2024-03-29T02:48:13;13.28;27.05
78992;DHT22;72820;44.838;37.674;2024-03-29T02:49:14;13.29;26.78
78992;DHT22;72820;44.838;37.674;2024-03-29T02:50:16;13.29;26.55
78992;DHT22;72820;44.838;37.674;2024-03-29T02:51:17;13.31;26.37
78992;DHT22;72820;44.838;37.674;2024-03-29T02:52:18;13.31;25.97
78992;DHT22;72820;44.838;37.674;2024-03-29T02:53:20;13.31;25.18
78992;DHT22;72820;44.838;37.674;2024-03-29T02:54:22;13.29;25.46
78992;DHT22;72820;44.838;37.674;2024-03-29T02:55:23;13.31;25.55
78992;DHT22;72820;44.838;37.674;2024-03-29T02:56:25;13.34;25.63
78992;DHT22;72820;44.838;37.674;2024-03-29T02:57:28;13.32;25.65
78992;DHT22;72820;44.838;37.674;2024-03-29T02:58:29;13.35;25.22
78992;DHT22;72820;44.838;37.674;2024-03-29T02:59:30;13.32;25.46
78992;DHT22;72820;44.838;37.674;2024-03-29T03:00:33;13.35;25.00
78992;DHT22;72820;44.838;37.674;2024-03-29T03:01:34;13.31;25.43
78992;DHT22;72820;44.838;37.674;2024-03-29T03:02:39;13.32;25.48
78992;DHT22;72820;44.838;37.674;2024-03-29T03:03:40;13.31;25.49
78992;DHT22;72820;44.838;37.674;2024-03-29T03:04:42;13.29;25.76
78992;DHT22;72820;44.838;37.674;2024-03-29T03:05:43;13.27;25.86
78992;DHT22;72820;44.838;37.674;2024-03-29T03:06:44;13.27;26.64
78992;DHT22;72820;44.838;37.674;2024-03-29T03:07:46;13.27;26.32
78992;DHT22;72820;44.838;37.674;2024-03-29T03:09:05;13.25;27.25
78992;DHT22;72820;44.838;37.674;2024-03-29T03:10:33;13.25;26.47
78992;DHT22;72820;44.838;37.674;2024-03-29T03:11:53;13.22;26.62
78992;DHT22;72820;44.838;37.674;2024-03-29T03:12:54;13.22;27.14
78992;DHT22;72820;44.838;37.674;2024-03-29T03:13:55;13.19;27.04
78992;DHT22;72820;44.838;37.674;2024-03-29T03:14:57;13.17;26.99
78992;DHT22;72820;44.838;37.674;2024-03-29T03:15:59;13.14;26.91
78992;DHT22;72820;44.838;37.674;2024-03-29T03:17:01;13.14;28.88
78992;DHT22;72820;44.838;37.674;2024-03-29T03:18:02;13.07;26.50
78992;DHT22;72820;44.838;37.674;2024-03-29T03:19:03;13.06;27.11
78992;DHT22;72820;44.838;37.674;2024-03-29T03:20:05;13.06;27.03
78992;DHT22;72820;44.838;37.674;2024-03-29T03:21:07;13.04;26.82
78992;DHT22;72820;44.838;37.674;2024-03-29T03:22:09;13.06;28.01
78992;DHT22;72820;44.838;37.674;2024-03-29T03:23:10;13.06;27.76
78992;DHT22;72820;44.838;37.674;2024-03-29T03:24:12;13.08;28.68
78992;DHT22;72820;44.838;37.674;2024-03-29T03:25:13;13.04;28.28
78992;DHT22;72820;44.838;37.674;2024-03-29T03:26:14;13.07;28.25
78992;DHT22;72820;44.838;37.674;2024-03-29T03:27:16;13.07;28.26
78992;DHT22;72820;44.838;37.674;2024-03-29T03:28:17;13.07;27.61
78992;DHT22;72820;44.838;37.674;2024-03-29T03:29:18;13.07;27.38
78992;DHT22;72820;44.838;37.674;2024-03-29T03:30:20;13.06;27.32
78992;DHT22;72820;44.838;37.674;2024-03-29T03:31:21;13.06;28.50
78992;DHT22;72820;44.838;37.674;2024-03-29T03:32:22;13.03;28.10
78992;DHT22;72820;44.838;37.674;2024-03-29T03:33:24;13.04;27.56
78992;DHT22;72820;44.838;37.674;2024-03-29T03:34:25;13.06;26.77
78992;DHT22;72820;44.838;37.674;2024-03-29T03:35:26;13.08;27.46
78992;DHT22;72820;44.838;37.674;2024-03-29T03:36:28;13.12;27.15
78992;DHT22;72820;44.838;37.674;2024-03-29T03:37:29;13.14;26.79
78992;DHT22;72820;44.838;37.674;2024-03-29T03:38:31;13.17;27.56
78992;DHT22;72820;44.838;37.674;2024-03-29T03:39:32;13.15;27.84
78992;DHT22;72820;44.838;37.674;2024-03-29T03:40:34;13.17;27.99
78992;DHT22;72820;44.838;37.674;2024-03-29T03:41:35;13.18;27.41
78992;DHT22;72820;44.838;37.674;2024-03-29T03:42:36;13.19;27.38
78992;DHT22;72820;44.838;37.674;2024-03-29T03:43:38;13.18;27.32
78992;DHT22;72820;44.838;37.674;2024-03-29T03:44:39;13.21;26.96
78992;DHT22;72820;44.838;37.674;2024-03-29T03:45:41;13.19;28.26
78992;DHT22;72820;44.838;37.674;2024-03-29T03:46:42;13.18;28.93
78992;DHT22;72820;44.838;37.674;2024-03-29T03:47:43;13.19;26.72
78992;DHT22;72820;44.838;37.674;2024-03-29T03:48:45;13.21;27.90
78992;DHT22;72820;44.838;37.674;2024-03-29T03:49:46;13.22;27.26
78992;DHT22;72820;44.838;37.674;2024-03-29T03:50:47;13.24;26.93
78992;DHT22;72820;44.838;37.674;2024-03-29T03:51:49;13.19;25.93
78992;DHT22;72820;44.838;37.674;2024-03-29T03:52:50;13.22;26.87
78992;DHT22;72820;44.838;37.674;2024-03-29T03:53:52;13.25;25.81
78992;DHT22;72820;44.838;37.674;2024-03-29T03:54:53;13.29;26.90
78992;DHT22;72820;44.838;37.674;2024-03-29T03:55:54;13.31;26.68
78992;DHT22;72820;44.838;37.674;2024-03-29T03:56:56;13.34;26.88
78992;DHT22;72820;44.838;37.674;2024-03-29T03:57:57;13.37;27.06
78992;DHT22;72820;44.838;37.674;2024-03-29T03:58:58;13.39;26.27
78992;DHT22;72820;44.838;37.674;2024-03-29T04:00:00;13.41;25.96
78992;DHT22;72820;44.838;37.674;2024-03-29T04:01:05;13.45;26.63
78992;DHT22;72820;44.838;37.674;2024-03-29T04:02:06;13.49;27.86
78992;DHT22;72820;44.838;37.674;2024-03-29T04:03:08;13.49;26.87
78992;DHT22;72820;44.838;37.674;2024-03-29T04:04:09;13.51;28.89
78992;DHT22;72820;44.838;37.674;2024-03-29T04:05:10;13.51;27.38
78992;DHT22;72820;44.838;37.674;2024-03-29T04:06:12;13.52;28.41
78992;DHT22;72820;44.838;37.674;2024-03-29T04:07:13;13.54;28.37
78992;DHT22;72820;44.838;37.674;2024-03-29T04:08:15;13.56;28.40
78992;DHT22;72820;44.838;37.674;2024-03-29T04:09:18;13.55;28.67
78992;DHT22;72820;44.838;37.674;2024-03-29T04:10:20;13.58;28.56
78992;DHT22;72820;44.838;37.674;2024-03-29T04:11:21;13.59;28.15
78992;DHT22;72820;44.838;37.674;2024-03-29T04:12:23;13.59;28.31
78992;DHT22;72820;44.838;37.674;2024-03-29T04:13:26;13.62;28.33
78992;DHT22;72820;44.838;37.674;2024-03-29T04:14:27;13.66;28.72
78992;DHT22;72820;44.838;37.674;2024-03-29T04:15:29;13.67;28.93
78992;DHT22;72820;44.838;37.674;2024-03-29T04:16:30;13.70;28.62
78992;DHT22;72820;44.838;37.674;2024-03-29T04:17:32;13.76;28.90
78992;DHT22;72820;44.838;37.674;2024-03-29T04:18:34;13.79;28.11
78992;DHT22;72820;44.838;37.674;2024-03-29T04:19:35;13.89;27.60
78992;DHT22;72820;44.838;37.674;2024-03-29T04:20:37;13.90;28.51
78992;DHT22;72820;44.838;37.674;2024-03-29T04:21:38;13.91;27.72
78992;DHT22;72820;44.838;37.674;2024-03-29T04:22:40;13.91;29.38
78992;DHT22;72820;44.838;37.674;2024-03-29T04:23:41;13.91;29.12
78992;DHT22;72820;44.838;37.674;2024-03-29T04:24:42;13.97;27.89
78992;DHT22;72820;44.838;37.674;2024-03-29T04:25:54;14.04;27.28
78992;DHT22;72820;44.838;37.674;2024-03-29T04:26:55;14.08;27.25
78992;DHT22;72820;44.838;37.674;2024-03-29T04:27:56;14.10;27.61
78992;DHT22;72820;44.838;37.674;2024-03-29T04:28:58;14.17;27.81
78992;DHT22;72820;44.838;37.674;2024-03-29T04:29:59;14.17;27.54
78992;DHT22;72820;44.838;37.674;2024-03-29T04:31:01;14.20;28.05
78992;DHT22;72820;44.838;37.674;2024-03-29T04:32:02;14.22;28.48
78992;DHT22;72820;44.838;37.674;2024-03-29T04:33:04;14.22;28.96
78992;DHT22;72820;44.838;37.674;2024-03-29T04:34:06;14.22;28.36
78992;DHT22;72820;44.838;37.674;2024-03-29T04:35:07;14.28;28.26
78992;DHT22;72820;44.838;37.674;2024-03-29T04:36:09;14.31;28.21
78992;DHT22;72820;44.838;37.674;2024-03-29T04:37:10;14.34;28.45
78992;DHT22;72820;44.838;37.674;2024-03-29T04:38:11;14.38;28.15
78992;DHT22;72820;44.838;37.674;2024-03-29T04:39:13;14.42;27.39
78992;DHT22;72820;44.838;37.674;2024-03-29T04:40:14;14.42;28.11
78992;DHT22;72820;44.838;37.674;2024-03-29T04:41:16;14.46;28.42
78992;DHT22;72820;44.838;37.674;2024-03-29T04:42:17;14.48;28.45
78992;DHT22;72820;44.838;37.674;2024-03-29T04:43:21;14.49;28.32
78992;DHT22;72820;44.838;37.674;2024-03-29T04:44:24;14.52;27.74
78992;DHT22;72820;44.838;37.674;2024-03-29T04:45:26;14.53;27.68
78992;DHT22;72820;44.838;37.674;2024-03-29T04:46:31;14.55;27.34
78992;DHT22;72820;44.838;37.674;2024-03-29T04:47:33;14.52;27.94
78992;DHT22;72820;44.838;37.674;2024-03-29T04:48:34;14.55;28.25
78992;DHT22;72820;44.838;37.674;2024-03-29T04:49:36;14.52;28.46
78992;DHT22;72820;44.838;37.674;2024-03-29T04:50:40;14.55;29.00
78992;DHT22;72820;44.838;37.674;2024-03-29T04:51:41;14.55;28.57
78992;DHT22;72820;44.838;37.674;2024-03-29T04:52:43;14.56;28.35
78992;DHT22;72820;44.838;37.674;2024-03-29T04:53:44;14.58;28.95
78992;DHT22;72820;44.838;37.674;2024-03-29T04:54:46;14.56;29.10
78992;DHT22;72820;44.838;37.674;2024-03-29T04:55:53;14.61;29.60
78992;DHT22;72820;44.838;37.674;2024-03-29T04:56:55;14.61;29.42
78992;DHT22;72820;44.838;37.674;2024-03-29T04:57:56;14.66;29.75
78992;DHT22;72820;44.838;37.674;2024-03-29T04:58:57;14.66;29.45
78992;DHT22;72820;44.838;37.674;2024-03-29T05:00:00;14.65;29.29
78992;DHT22;72820;44.838;37.674;2024-03-29T05:01:01;14.68;29.42
78992;DHT22;72820;44.838;37.674;2024-03-29T05:02:02;14.69;29.89
78992;DHT22;72820;44.838;37.674;2024-03-29T05:03:04;14.72;29.50
78992;DHT22;72820;44.838;37.674;2024-03-29T05:04:05;14.70;29.91
78992;DHT22;72820;44.838;37.674;2024-03-29T05:05:07;14.72;30.19
78992;DHT22;72820;44.838;37.674;2024-03-29T05:06:08;14.75;29.85
78992;DHT22;72820;44.838;37.674;2024-03-29T05:07:10;14.75;29.58
78992;DHT22;72820;44.838;37.674;2024-03-29T05:08:12;14.79;29.87
78992;DHT22;72820;44.838;37.674;2024-03-29T05:09:14;14.77;30.20
78992;DHT22;72820;44.838;37.674;2024-03-29T05:10:15;14.82;30.50
78992;DHT22;72820;44.838;37.674;2024-03-29T05:11:17;14.83;30.15
78992;DHT22;72820;44.838;37.674;2024-03-29T05:12:19;14.83;30.26
78992;DHT22;72820;44.838;37.674;2024-03-29T05:13:20;14.84;30.32
78992;DHT22;72820;44.838;37.674;2024-03-29T05:14:21;14.86;30.36
78992;DHT22;72820;44.838;37.674;2024-03-29T05:15:23;14.84;29.99
78992;DHT22;72820;44.838;37.674;2024-03-29T05:16:24;14.90;30.65
78992;DHT22;72820;44.838;37.674;2024-03-29T05:17:26;14.99;32.60
78992;DHT22;72820;44.838;37.674;2024-03-29T05:18:28;15.11;31.31
78992;DHT22;72820;44.838;37.674;2024-03-29T05:19:29;15.20;32.05
78992;DHT22;72820;44.838;37.674;2024-03-29T05:20:31;15.27;30.63
78992;DHT22;72820;44.838;37.674;2024-03-29T05:21:32;15.28;30.47
78992;DHT22;72820;44.838;37.674;2024-03-29T05:22:33;15.34;30.26
78992;DHT22;72820;44.838;37.674;2024-03-29T05:23:35;15.34;30.40
78992;DHT22;72820;44.838;37.674;2024-03-29T05:24:36;15.34;30.50
78992;DHT22;72820;44.838;37.674;2024-03-29T05:25:38;15.35;30.76
78992;DHT22;72820;44.838;37.674;2024-03-29T05:26:39;15.42;30.85
78992;DHT22;72820;44.838;37.674;2024-03-29T05:27:40;15.42;30.37
78992;DHT22;72820;44.838;37.674;2024-03-29T05:28:42;15.42;30.49
78992;DHT22;72820;44.838;37.674;2024-03-29T05:29:43;15.41;30.54
78992;DHT22;72820;44.838;37.674;2024-03-29T05:30:45;15.39;30.19
78992;DHT22;72820;44.838;37.674;2024-03-29T05:31:46;15.41;31.28
78992;DHT22;72820;44.838;37.674;2024-03-29T05:32:47;15.51;31.14
78992;DHT22;72820;44.838;37.674;2024-03-29T05:33:49;15.52;31.24
78992;DHT22;72820;44.838;37.674;2024-03-29T05:34:50;15.44;31.10
78992;DHT22;72820;44.838;37.674;2024-03-29T05:35:51;15.51;30.75
78992;DHT22;72820;44.838;37.674;2024-03-29T05:36:53;15.53;30.58
78992;DHT22;72820;44.838;37.674;2024-03-29T05:37:54;15.56;30.53
78992;DHT22;72820;44.838;37.674;2024-03-29T05:38:55;15.56;30.94
78992;DHT22;72820;44.838;37.674;2024-03-29T05:39:57;15.61;31.17
78992;DHT22;72820;44.838;37.674;2024-03-29T05:41:01;15.58;30.38
78992;DHT22;72820;44.838;37.674;2024-03-29T05:42:02;15.53;30.72
78992;DHT22;72820;44.838;37.674;2024-03-29T05:43:04;15.48;31.54
78992;DHT22;72820;44.838;37.674;2024-03-29T05:44:05;15.44;31.07
78992;DHT22;72820;44.838;37.674;2024-03-29T05:45:30;15.41;30.46
78992;DHT22;72820;44.838;37.674;2024-03-29T05:46:32;15.36;30.67
78992;DHT22;72820;44.838;37.674;2024-03-29T05:47:33;15.36;31.21
78992;DHT22;72820;44.838;37.674;2024-03-29T05:48:35;15.36;31.10
78992;DHT22;72820;44.838;37.674;2024-03-29T05:49:36;15.34;31.02
78992;DHT22;72820;44.838;37.674;2024-03-29T05:50:37;15.34;30.99
78992;DHT22;72820;44.838;37.674;2024-03-29T05:51:39;15.34;31.35
78992;DHT22;72820;44.838;37.674;2024-03-29T05:52:40;15.35;31.28
78992;DHT22;72820;44.838;37.674;2024-03-29T05:53:41;15.34;31.43
78992;DHT22;72820;44.838;37.674;2024-03-29T05:54:44;15.36;31.86
78992;DHT22;72820;44.838;37.674;2024-03-29T05:55:45;15.36;31.86
78992;DHT22;72820;44.838;37.674;2024-03-29T05:56:47;15.36;31.96
78992;DHT22;72820;44.838;37.674;2024-03-29T05:57:48;15.39;31.24
78992;DHT22;72820;44.838;37.674;2024-03-29T05:58:49;15.39;31.67
78992;DHT22;72820;44.838;37.674;2024-03-29T05:59:51;15.41;31.61
78992;DHT22;72820;44.838;37.674;2024-03-29T06:00:53;15.44;31.63
78992;DHT22;72820;44.838;37.674;2024-03-29T06:01:54;15.46;32.16
78992;DHT22;72820;44.838;37.674;2024-03-29T06:02:55;15.45;32.11
78992;DHT22;72820;44.838;37.674;2024-03-29T06:03:58;15.45;31.62
78992;DHT22;72820;44.838;37.674;2024-03-29T06:05:05;15.49;31.66
78992;DHT22;72820;44.838;37.674;2024-03-29T06:06:07;15.49;32.18
78992;DHT22;72820;44.838;37.674;2024-03-29T06:07:08;15.52;31.77
78992;DHT22;72820;44.838;37.674;2024-03-29T06:08:09;15.53;31.55
78992;DHT22;72820;44.838;37.674;2024-03-29T06:09:11;15.56;31.97
78992;DHT22;72820;44.838;37.674;2024-03-29T06:10:12;15.58;31.76
78992;DHT22;72820;44.838;37.674;2024-03-29T06:11:15;15.61;31.71
78992;DHT22;72820;44.838;37.674;2024-03-29T06:12:16;15.58;31.34
78992;DHT22;72820;44.838;37.674;2024-03-29T06:13:18;15.59;31.58
78992;DHT22;72820;44.838;37.674;2024-03-29T06:14:39;15.61;32.08
78992;DHT22;72820;44.838;37.674;2024-03-29T06:15:59;15.58;31.94
78992;DHT22;72820;44.838;37.674;2024-03-29T06:17:19;15.55;31.61
78992;DHT22;72820;44.838;37.674;2024-03-29T06:18:23;15.52;32.34
78992;DHT22;72820;44.838;37.674;2024-03-29T06:19:24;15.53;32.28
78992;DHT22;72820;44.838;37.674;2024-03-29T06:20:27;15.52;32.51
78992;DHT22;72820;44.838;37.674;2024-03-29T06:21:29;15.51;32.64
78992;DHT22;72820;44.838;37.674;2024-03-29T06:22:33;15.52;32.78
78992;DHT22;72820;44.838;37.674;2024-03-29T06:23:34;15.49;32.26
78992;DHT22;72820;44.838;37.674;2024-03-29T06:24:36;15.49;32.20
78992;DHT22;72820;44.838;37.674;2024-03-29T06:25:38;15.51;32.78